Time;durP1;ratioP1;P1;durP2;ratioP2;P2;SDS_P1;SDS_P2;PMS_P1;PMS_P2;Temp;Humidity;BMP_temperature;BMP_pressure;BME280_temperature;BME280_humidity;BME280_pressure;Samples;Min_cycle;Max_cycle;Signal;HPM_P1;HPM_P2
2023/05/31 07:50:55;;;;;;;5.05;3.30;;;25.00;98.30;;;;;;4492861;23;20257;-71
2023/05/31 07:53:22;;;;;;;5.82;3.80;;;25.70;98.10;;;;;;5010840;28;20369;-72
2023/05/31 07:55:49;;;;;;;4.93;3.38;;;25.10;97.90;;;;;;5013503;28;20209;-72
2023/05/31 07:58:16;;;;;;;5.85;3.25;;;24.30;98.90;;;;;;5012716;28;20280;-72
2023/05/31 08:00:43;;;;;;;5.57;3.00;;;24.20;99.20;;;;;;5012613;28;20205;-73
2023/05/31 08:03:10;;;;;;;4.60;3.00;;;23.80;99.40;;;;;;4994417;28;20202;-72
2023/05/31 08:05:37;;;;;;;7.03;3.30;;;24.30;99.20;;;;;;4993363;28;20211;-72
2023/05/31 08:08:05;;;;;;;7.05;3.20;;;24.60;98.90;;;;;;4993970;28;20231;-72
2023/05/31 08:10:32;;;;;;;4.18;2.78;;;24.80;98.80;;;;;;4993522;28;20294;-72
2023/05/31 08:12:59;;;;;;;4.93;2.85;;;25.00;99.20;;;;;;4993138;28;20273;-72
2023/05/31 08:15:26;;;;;;;4.82;2.83;;;25.50;98.50;;;;;;4992829;28;20602;-73
2023/05/31 08:17:53;;;;;;;4.65;2.95;;;26.10;97.40;;;;;;4976916;28;20234;-72
2023/05/31 08:20:21;;;;;;;5.03;3.20;;;26.20;97.30;;;;;;5007560;28;20687;-72
2023/05/31 08:22:48;;;;;;;5.93;2.88;;;25.90;97.40;;;;;;4994302;28;20565;-73
2023/05/31 08:25:16;;;;;;;6.25;3.35;;;26.20;97.20;;;;;;4992939;28;20210;-71
2023/05/31 08:27:43;;;;;;;4.65;2.70;;;26.40;97.00;;;;;;4992841;28;20230;-72
2023/05/31 08:30:11;;;;;;;5.45;3.22;;;26.20;97.30;;;;;;4992949;28;20628;-72
2023/05/31 08:32:38;;;;;;;6.20;3.22;;;26.30;97.30;;;;;;4992901;28;20277;-73
2023/05/31 08:35:06;;;;;;;5.68;3.13;;;26.60;97.10;;;;;;4993042;28;20214;-72
2023/05/31 08:37:33;;;;;;;5.25;2.97;;;25.90;97.10;;;;;;4992448;28;20234;-72
2023/05/31 08:40:00;;;;;;;5.15;3.05;;;26.00;97.80;;;;;;4992836;28;20242;-71
2023/05/31 08:42:38;;;;;;;6.95;3.28;;;26.70;96.80;;;;;;4993140;28;20266;-71
2023/05/31 08:45:06;;;;;;;7.20;3.05;;;27.20;96.20;;;;;;4992933;28;20616;-72
2023/05/31 08:47:37;;;;;;;10.23;3.78;;;27.70;96.20;;;;;;4992976;28;20620;-72
2023/05/31 08:50:04;;;;;;;5.85;3.50;;;28.00;95.80;;;;;;4992230;28;20210;-72
2023/05/31 08:52:33;;;;;;;4.20;2.80;;;27.30;95.70;;;;;;4991679;28;20234;-71
2023/05/31 08:55:00;;;;;;;5.88;3.30;;;26.60;95.70;;;;;;4991981;28;20210;-71
2023/05/31 08:57:30;;;;;;;5.00;2.60;;;26.10;96.90;;;;;;4992257;28;20230;-71
2023/05/31 08:59:59;;;;;;;6.50;2.63;;;26.70;96.10;;;;;;4992991;28;20238;-70
2023/05/31 09:02:26;;;;;;;4.20;2.78;;;26.80;96.50;;;;;;4992625;28;20213;-70
2023/05/31 09:04:53;;;;;;;6.63;2.58;;;26.30;96.20;;;;;;4994037;28;20293;-70
2023/05/31 09:07:20;;;;;;;7.13;2.92;;;26.30;96.60;;;;;;4993894;28;20229;-71
2023/05/31 09:09:47;;;;;;;5.40;2.75;;;26.30;96.50;;;;;;4994270;28;20297;-72
2023/05/31 09:12:13;;;;;;;5.70;3.13;;;26.30;96.30;;;;;;4993766;28;20234;-71
2023/05/31 09:14:42;;;;;;;5.68;2.53;;;26.30;95.90;;;;;;4993819;28;20210;-72
2023/05/31 09:17:09;;;;;;;5.72;3.05;;;26.10;96.50;;;;;;4993861;28;20280;-70
2023/05/31 09:19:41;;;;;;;9.77;2.75;;;25.80;96.80;;;;;;4993896;28;20202;-71
2023/05/31 09:22:08;;;;;;;3.90;2.55;;;25.80;96.60;;;;;;4994116;28;20222;-73
2023/05/31 09:24:35;;;;;;;4.72;2.38;;;25.80;96.70;;;;;;4994127;28;20245;-71
2023/05/31 09:27:02;;;;;;;4.57;2.80;;;26.10;97.00;;;;;;4993891;28;20230;-71
2023/05/31 09:29:29;;;;;;;6.65;2.55;;;25.90;97.10;;;;;;4994162;28;20206;-72
2023/05/31 09:32:10;;;;;;;5.95;2.33;;;26.00;97.10;;;;;;4993562;28;20238;-71
2023/05/31 09:34:37;;;;;;;3.88;2.78;;;25.50;96.70;;;;;;4993976;28;20222;-72
2023/05/31 09:37:05;;;;;;;4.18;2.47;;;25.00;97.50;;;;;;4993860;28;20231;-73
2023/05/31 09:39:32;;;;;;;6.57;3.30;;;25.40;97.40;;;;;;4993739;28;20211;-73
2023/05/31 09:41:59;;;;;;;4.20;2.63;;;25.60;96.90;;;;;;4994086;28;20485;-72
2023/05/31 09:44:30;;;;;;;5.35;2.30;;;25.00;97.40;;;;;;4993695;28;20207;-72
2023/05/31 09:46:57;;;;;;;5.70;2.55;;;24.90;97.90;;;;;;4993555;28;20604;-72
2023/05/31 09:49:28;;;;;;;4.45;2.05;;;25.00;97.30;;;;;;4993436;28;20206;-70
2023/05/31 09:51:54;;;;;;;4.65;2.47;;;24.20;97.30;;;;;;4993081;28;20265;-71
2023/05/31 09:54:24;;;;;;;4.25;2.25;;;24.10;98.20;;;;;;4993612;28;20216;-71
2023/05/31 09:56:51;;;;;;;4.80;2.28;;;24.00;98.10;;;;;;4993603;28;20234;-72
2023/05/31 09:59:21;;;;;;;5.55;2.60;;;24.40;98.00;;;;;;4993692;28;20206;-70
2023/05/31 10:01:49;;;;;;;2.95;2.28;;;24.00;98.40;;;;;;4994011;28;20206;-72
2023/05/31 10:04:16;;;;;;;4.50;2.88;;;23.80;98.10;;;;;;4993505;28;20202;-71
2023/05/31 10:06:45;;;;;;;6.05;2.53;;;23.80;98.40;;;;;;4993483;28;20245;-71
2023/05/31 10:09:12;;;;;;;5.93;2.55;;;23.80;98.50;;;;;;4993822;28;20216;-71
2023/05/31 10:11:45;;;;;;;3.88;2.05;;;23.50;97.20;;;;;;4993291;28;20203;-72
2023/05/31 10:14:17;;;;;;;4.57;2.45;;;23.00;97.80;;;;;;4993266;28;20676;-72
2023/05/31 10:16:49;;;;;;;4.15;2.05;;;22.60;98.80;;;;;;4993207;28;20211;-70
2023/05/31 10:19:22;;;;;;;3.08;1.88;;;22.70;99.20;;;;;;4993433;28;20210;-70
2023/05/31 10:21:51;;;;;;;8.05;2.05;;;23.00;98.30;;;;;;4993066;28;20732;-72
2023/05/31 10:24:24;;;;;;;5.82;1.60;;;22.90;97.20;;;;;;4993085;28;20216;-71
2023/05/31 10:27:00;;;;;;;5.35;2.08;;;22.90;98.00;;;;;;4992694;28;20731;-72
2023/05/31 10:29:30;;;;;;;3.97;1.95;;;22.70;98.40;;;;;;4993168;28;20222;-72
2023/05/31 10:32:06;;;;;;;4.20;2.13;;;22.90;98.70;;;;;;4993030;28;20291;-72
2023/05/31 10:34:34;;;;;;;4.72;2.20;;;23.00;98.80;;;;;;4993010;28;20216;-72
2023/05/31 10:37:05;;;;;;;2.80;1.75;;;23.00;97.50;;;;;;4993090;28;20317;-72
2023/05/31 10:39:39;;;;;;;5.15;2.10;;;22.90;99.10;;;;;;4993406;28;20273;-71
2023/05/31 10:42:21;;;;;;;4.18;1.90;;;23.00;98.50;;;;;;4993174;28;20210;-73
2023/05/31 10:44:54;;;;;;;2.90;1.77;;;23.00;98.80;;;;;;4993081;28;20206;-72
2023/05/31 10:47:27;;;;;;;4.53;2.00;;;23.30;97.50;;;;;;4992874;28;20764;-71
2023/05/31 10:49:56;;;;;;;6.03;1.50;;;23.20;96.00;;;;;;4993288;28;20223;-73
2023/05/31 10:52:24;;;;;;;4.45;2.00;;;23.40;96.30;;;;;;4993001;28;20235;-72
2023/05/31 10:54:51;;;;;;;3.95;2.00;;;23.40;96.40;;;;;;4993174;28;20305;-72
2023/05/31 10:57:18;;;;;;;3.53;1.52;;;23.30;97.40;;;;;;4993059;28;20669;-73
2023/05/31 10:59:46;;;;;;;3.40;1.77;;;23.30;96.60;;;;;;4992985;28;20286;-71
2023/05/31 11:02:13;;;;;;;3.05;1.70;;;23.30;96.80;;;;;;4996810;28;20309;-71
2023/05/31 11:04:41;;;;;;;2.90;1.98;;;23.40;96.30;;;;;;4996421;28;20568;-72
2023/05/31 11:07:14;;;;;;;4.45;1.40;;;23.50;96.60;;;;;;4996308;28;20601;-69
2023/05/31 11:09:56;;;;;;;2.17;1.30;;;23.40;95.00;;;;;;4996168;28;20214;-72
2023/05/31 11:12:34;;;;;;;3.25;1.48;;;23.30;95.70;;;;;;4996265;28;20238;-71
2023/05/31 11:15:01;;;;;;;4.05;1.33;;;23.20;96.00;;;;;;4996238;28;20206;-71
2023/05/31 11:17:28;;;;;;;4.18;1.50;;;23.40;95.50;;;;;;4996149;28;20234;-70
2023/05/31 11:19:56;;;;;;;3.88;1.30;;;23.60;94.90;;;;;;4995934;28;20765;-70
2023/05/31 11:22:27;;;;;;;1.90;0.95;;;23.70;95.00;;;;;;4996001;28;20305;-69
2023/05/31 11:24:57;;;;;;;2.30;1.30;;;23.60;94.90;;;;;;4996152;28;20801;-69
2023/05/31 11:27:35;;;;;;;2.90;1.10;;;23.60;94.70;;;;;;4995443;28;20229;-69
2023/05/31 11:30:03;;;;;;;1.75;1.10;;;23.40;94.20;;;;;;4996045;28;20232;-69
2023/05/31 11:32:57;;;;;;;2.28;1.25;;;23.40;95.30;;;;;;4984734;28;20250;-70
2023/05/31 11:35:25;;;;;;;2.45;1.23;;;23.60;94.80;;;;;;4986335;28;20210;-70
2023/05/31 11:38:01;;;;;;;2.67;1.10;;;23.70;94.50;;;;;;4984043;28;20226;-70
2023/05/31 11:40:31;;;;;;;4.05;1.42;;;23.80;95.50;;;;;;4984113;28;20258;-69
2023/05/31 11:43:07;;;;;;;3.92;1.60;;;23.90;94.60;;;;;;4977950;28;20666;-70
2023/05/31 11:45:35;;;;;;;2.15;1.50;;;23.90;94.80;;;;;;4979272;28;20203;-70
2023/05/31 11:48:23;;;;;;;3.10;1.23;;;23.90;94.60;;;;;;4981426;28;20229;-69
2023/05/31 11:50:50;;;;;;;4.15;1.33;;;23.80;94.70;;;;;;4978582;28;20217;-70
2023/05/31 11:53:17;;;;;;;3.53;0.90;;;23.80;94.70;;;;;;4985882;28;20235;-70
2023/05/31 11:55:48;;;;;;;3.90;1.35;;;23.90;94.70;;;;;;4985224;28;20232;-69
2023/05/31 11:58:15;;;;;;;2.00;1.10;;;24.00;93.80;;;;;;4981890;28;20227;-69
2023/05/31 12:00:46;;;;;;;1.67;1.13;;;23.80;94.20;;;;;;4984115;28;20206;-70
2023/05/31 12:03:16;;;;;;;3.40;1.48;;;23.80;94.30;;;;;;4978973;28;20208;-70
2023/05/31 12:05:49;;;;;;;2.58;1.45;;;23.80;94.10;;;;;;4981625;28;20218;-71
2023/05/31 12:08:17;;;;;;;3.08;1.10;;;23.80;94.70;;;;;;4985617;28;20227;-70
2023/05/31 12:10:45;;;;;;;2.67;1.23;;;24.00;95.30;;;;;;4977614;28;20454;-70
2023/05/31 12:13:16;;;;;;;2.72;1.25;;;24.30;94.80;;;;;;4974474;28;20802;-70
2023/05/31 12:15:43;;;;;;;1.85;1.38;;;24.40;93.90;;;;;;4973636;28;20207;-70
2023/05/31 12:18:12;;;;;;;4.28;1.10;;;24.50;93.40;;;;;;4974463;28;20318;-70
2023/05/31 12:20:42;;;;;;;2.88;1.20;;;24.40;93.20;;;;;;4981589;28;20206;-69
2023/05/31 12:23:14;;;;;;;6.13;1.13;;;24.40;93.30;;;;;;4993233;28;20225;-71
2023/05/31 12:25:46;;;;;;;2.63;1.38;;;24.10;93.10;;;;;;4993768;28;20208;-71
2023/05/31 12:28:16;;;;;;;4.97;1.50;;;24.10;94.30;;;;;;4992539;28;20234;-71
2023/05/31 12:30:47;;;;;;;2.97;1.40;;;24.30;94.50;;;;;;4993181;28;20210;-71
2023/05/31 12:33:15;;;;;;;3.17;1.13;;;24.40;93.80;;;;;;4993249;28;20238;-70
2023/05/31 12:35:43;;;;;;;2.83;1.40;;;24.40;94.10;;;;;;4992550;28;20212;-71
2023/05/31 12:38:10;;;;;;;4.45;1.52;;;24.40;93.50;;;;;;5001440;28;20229;-70
2023/05/31 12:40:45;;;;;;;5.97;1.50;;;24.50;93.10;;;;;;5001009;28;20242;-71
2023/05/31 12:43:14;;;;;;;1.67;1.08;;;24.50;93.60;;;;;;4992255;28;20261;-70
2023/05/31 12:45:42;;;;;;;1.88;1.00;;;24.60;93.70;;;;;;4993041;28;20215;-71
2023/05/31 12:48:10;;;;;;;1.98;1.33;;;24.60;94.30;;;;;;4992564;28;20226;-70
2023/05/31 12:50:38;;;;;;;4.07;1.30;;;24.40;93.70;;;;;;4992165;28;20214;-70
2023/05/31 12:53:07;;;;;;;3.05;1.40;;;24.20;94.10;;;;;;4992562;28;20567;-71
2023/05/31 12:55:34;;;;;;;3.40;1.40;;;24.20;94.70;;;;;;4992955;28;20206;-71
2023/05/31 12:58:01;;;;;;;2.83;1.40;;;24.40;94.20;;;;;;4992260;28;20230;-71
2023/05/31 13:00:30;;;;;;;5.75;1.20;;;24.30;94.50;;;;;;4992669;28;20299;-71
2023/05/31 13:02:56;;;;;;;3.00;1.30;;;24.40;94.30;;;;;;4993031;28;20263;-70
2023/05/31 13:05:25;;;;;;;5.00;1.50;;;24.30;94.00;;;;;;4992233;28;20212;-70
2023/05/31 13:07:52;;;;;;;2.63;1.25;;;24.30;94.00;;;;;;4993632;28;20297;-72
2023/05/31 13:10:19;;;;;;;2.53;1.38;;;24.20;94.30;;;;;;4993989;28;20289;-71
2023/05/31 13:12:46;;;;;;;1.67;1.10;;;24.30;93.90;;;;;;4993881;28;20202;-71
2023/05/31 13:15:13;;;;;;;2.65;1.35;;;24.50;94.00;;;;;;4993506;28;20213;-71
2023/05/31 13:17:41;;;;;;;4.97;1.38;;;24.60;94.00;;;;;;4993891;28;20222;-71
2023/05/31 13:20:09;;;;;;;4.75;1.50;;;24.60;93.90;;;;;;4993968;28;20213;-71
2023/05/31 13:22:36;;;;;;;2.78;1.40;;;24.70;94.00;;;;;;4993031;28;20206;-71
2023/05/31 13:25:03;;;;;;;4.57;1.42;;;24.70;93.90;;;;;;4993524;28;20236;-71
2023/05/31 13:27:30;;;;;;;3.90;1.30;;;24.90;93.40;;;;;;4993590;28;20262;-71
2023/05/31 13:29:57;;;;;;;3.75;1.20;;;25.00;94.20;;;;;;4993923;28;20421;-71
2023/05/31 13:32:24;;;;;;;3.58;1.42;;;25.00;94.20;;;;;;4993699;28;20216;-71
2023/05/31 13:34:52;;;;;;;3.53;1.33;;;25.10;95.00;;;;;;4993494;28;20234;-71
2023/05/31 13:37:20;;;;;;;2.40;1.17;;;25.20;93.60;;;;;;4993101;28;20755;-70
2023/05/31 13:39:47;;;;;;;2.95;1.45;;;25.20;93.30;;;;;;4993225;28;20206;-71
2023/05/31 13:42:14;;;;;;;2.03;1.23;;;25.30;93.70;;;;;;4993410;28;20751;-71
2023/05/31 13:44:41;;;;;;;3.30;1.25;;;25.10;93.60;;;;;;4993546;28;20206;-71
2023/05/31 13:47:08;;;;;;;2.80;1.10;;;25.10;93.60;;;;;;4993358;28;20620;-71
2023/05/31 13:49:39;;;;;;;4.10;1.20;;;24.90;93.50;;;;;;4993408;28;20202;-71
2023/05/31 13:52:09;;;;;;;2.53;1.20;;;24.60;93.70;;;;;;4993428;28;20206;-70
2023/05/31 13:54:36;;;;;;;3.70;1.30;;;24.60;93.80;;;;;;4993214;28;20319;-70
2023/05/31 13:57:03;;;;;;;2.97;1.67;;;24.80;93.70;;;;;;4993487;28;20308;-70
2023/05/31 13:59:31;;;;;;;3.28;1.17;;;24.90;93.40;;;;;;4993366;28;20212;-70
2023/05/31 14:01:58;;;;;;;3.28;1.15;;;24.90;93.50;;;;;;4993436;28;20206;-70
2023/05/31 14:04:24;;;;;;;2.95;1.20;;;25.00;93.40;;;;;;4993401;28;20234;-70
2023/05/31 14:06:52;;;;;;;3.00;1.13;;;24.90;94.00;;;;;;4993193;28;20705;-70
2023/05/31 14:09:21;;;;;;;3.47;1.10;;;24.90;93.80;;;;;;4993138;28;20211;-71
2023/05/31 14:11:48;;;;;;;4.28;1.30;;;25.00;94.40;;;;;;4993482;28;20301;-71
2023/05/31 14:14:15;;;;;;;1.88;0.98;;;25.00;93.50;;;;;;4992815;28;20238;-71
2023/05/31 14:16:41;;;;;;;4.18;1.75;;;24.90;93.80;;;;;;4992970;28;20206;-71
2023/05/31 14:19:08;;;;;;;5.68;1.20;;;25.00;94.30;;;;;;4993049;28;20210;-71
2023/05/31 14:21:36;;;;;;;2.15;1.20;;;25.10;93.60;;;;;;4992853;28;20213;-71
2023/05/31 14:24:03;;;;;;;3.85;1.02;;;25.10;93.80;;;;;;4992984;28;20210;-71
2023/05/31 14:26:31;;;;;;;3.03;1.30;;;25.20;93.50;;;;;;4993309;28;20207;-71
2023/05/31 14:28:58;;;;;;;3.65;1.40;;;25.30;94.00;;;;;;4992816;28;20231;-71
2023/05/31 14:31:25;;;;;;;2.03;1.17;;;25.30;93.90;;;;;;4993034;28;20203;-71
2023/05/31 14:33:52;;;;;;;2.40;1.10;;;25.20;93.20;;;;;;4993013;28;20230;-72
2023/05/31 14:36:19;;;;;;;1.80;1.10;;;25.20;94.00;;;;;;4996611;28;20585;-71
2023/05/31 14:38:45;;;;;;;4.68;1.17;;;25.20;94.30;;;;;;4996743;28;20601;-71
2023/05/31 14:41:12;;;;;;;2.65;0.98;;;25.20;93.40;;;;;;4996667;28;20217;-71
2023/05/31 14:43:41;;;;;;;3.30;1.13;;;25.20;93.90;;;;;;4996625;28;20610;-71
2023/05/31 14:46:07;;;;;;;6.55;1.10;;;25.30;93.70;;;;;;4996503;28;20217;-71
2023/05/31 14:48:34;;;;;;;1.88;1.00;;;25.40;93.90;;;;;;4996312;28;20560;-71
2023/05/31 14:51:01;;;;;;;3.50;0.93;;;25.50;93.70;;;;;;4996280;28;20214;-71
2023/05/31 14:53:28;;;;;;;3.55;1.00;;;25.30;93.30;;;;;;4996446;28;20234;-71
2023/05/31 14:55:55;;;;;;;2.17;1.15;;;25.30;94.20;;;;;;4995911;28;20601;-70
2023/05/31 14:58:23;;;;;;;4.40;1.23;;;25.20;93.50;;;;;;4996417;28;20309;-71
2023/05/31 15:00:52;;;;;;;3.22;1.17;;;25.00;93.70;;;;;;4996310;28;20297;-71
2023/05/31 15:03:19;;;;;;;2.00;1.10;;;25.20;94.30;;;;;;4996338;28;20579;-71
2023/05/31 15:05:46;;;;;;;3.28;1.33;;;25.20;94.30;;;;;;4996332;28;20210;-70
2023/05/31 15:08:13;;;;;;;3.00;1.10;;;25.20;93.70;;;;;;4996258;28;20230;-71
2023/05/31 15:10:39;;;;;;;4.70;1.25;;;25.20;94.00;;;;;;4996320;28;20634;-71
2023/05/31 15:13:06;;;;;;;2.47;1.20;;;25.20;93.80;;;;;;4996447;28;20212;-70
2023/05/31 15:15:33;;;;;;;2.83;1.10;;;25.30;93.60;;;;;;4996026;28;20792;-70
2023/05/31 15:18:01;;;;;;;3.00;1.33;;;25.30;93.90;;;;;;4995965;28;20226;-71
2023/05/31 15:20:28;;;;;;;2.17;1.10;;;25.10;93.80;;;;;;4996409;28;20245;-70
2023/05/31 15:22:55;;;;;;;2.78;1.10;;;25.00;94.00;;;;;;4995956;28;20210;-70
2023/05/31 15:25:22;;;;;;;2.22;1.10;;;24.80;93.80;;;;;;4996287;28;20213;-71
2023/05/31 15:27:49;;;;;;;2.25;1.27;;;24.90;94.20;;;;;;4995681;28;20226;-71
2023/05/31 15:30:16;;;;;;;3.05;1.20;;;24.90;94.40;;;;;;4995834;28;20206;-71
2023/05/31 15:32:42;;;;;;;1.70;1.05;;;25.00;94.40;;;;;;4995796;28;20206;-71
2023/05/31 15:35:11;;;;;;;3.55;1.17;;;25.10;94.00;;;;;;4995843;28;20234;-72
2023/05/31 15:37:38;;;;;;;3.08;1.25;;;25.10;94.70;;;;;;4995942;28;20309;-71
2023/05/31 15:40:06;;;;;;;2.83;1.08;;;25.20;94.40;;;;;;4995816;28;20217;-71
2023/05/31 15:42:32;;;;;;;2.47;1.10;;;25.20;94.10;;;;;;4995677;28;20269;-70
2023/05/31 15:44:59;;;;;;;1.80;1.10;;;25.00;94.40;;;;;;4995039;28;20280;-71
2023/05/31 15:47:26;;;;;;;2.55;1.00;;;25.00;94.50;;;;;;4994383;28;20785;-71
2023/05/31 15:49:54;;;;;;;3.05;1.20;;;24.90;93.90;;;;;;4995592;28;20202;-70
2023/05/31 15:52:22;;;;;;;4.32;1.10;;;24.90;94.00;;;;;;4995084;28;20206;-70
2023/05/31 15:54:49;;;;;;;2.03;1.23;;;24.90;94.20;;;;;;4995221;28;20333;-71
2023/05/31 15:57:16;;;;;;;2.97;1.05;;;24.80;94.80;;;;;;4995427;28;20236;-71
2023/05/31 15:59:43;;;;;;;3.50;1.00;;;24.80;95.00;;;;;;4995526;28;20206;-72
2023/05/31 16:02:11;;;;;;;2.25;1.08;;;24.90;94.80;;;;;;4995640;28;20297;-70
2023/05/31 16:04:37;;;;;;;3.58;1.30;;;25.00;94.80;;;;;;4995374;28;20231;-71
2023/05/31 16:07:05;;;;;;;1.60;1.00;;;24.90;94.90;;;;;;4991675;28;20348;-71
2023/05/31 16:09:34;;;;;;;2.10;1.20;;;24.90;95.00;;;;;;4993779;28;20261;-72
2023/05/31 16:12:02;;;;;;;1.75;1.10;;;25.00;94.80;;;;;;4993548;28;20293;-72
2023/05/31 16:14:29;;;;;;;5.32;1.58;;;24.90;95.00;;;;;;4993843;28;20264;-71
2023/05/31 16:16:56;;;;;;;4.00;1.20;;;24.90;95.20;;;;;;4994770;28;20236;-71
2023/05/31 16:19:23;;;;;;;2.47;1.30;;;24.90;94.90;;;;;;4995152;28;20209;-71
2023/05/31 16:21:50;;;;;;;1.67;1.05;;;25.00;94.90;;;;;;4994398;28;20218;-70
2023/05/31 16:24:17;;;;;;;4.80;1.98;;;25.00;94.80;;;;;;4994858;28;20220;-71
2023/05/31 16:26:45;;;;;;;3.63;1.13;;;24.90;94.50;;;;;;4994663;28;20216;-70
2023/05/31 16:29:12;;;;;;;2.17;1.02;;;24.80;94.80;;;;;;4994879;28;20207;-71
2023/05/31 16:31:38;;;;;;;5.47;2.22;;;24.80;94.70;;;;;;4994873;28;20570;-71
2023/05/31 16:34:05;;;;;;;3.42;1.25;;;24.90;94.60;;;;;;4994790;28;20234;-71
2023/05/31 16:36:32;;;;;;;2.70;1.30;;;24.90;94.60;;;;;;4994309;28;20277;-71
2023/05/31 16:39:03;;;;;;;3.78;1.23;;;25.00;94.40;;;;;;4994716;28;20211;-70
2023/05/31 16:41:30;;;;;;;5.32;1.30;;;24.90;94.60;;;;;;4994594;28;20206;-71
2023/05/31 16:43:58;;;;;;;2.50;1.30;;;24.70;94.50;;;;;;4994331;28;20211;-72
2023/05/31 16:46:25;;;;;;;2.38;1.17;;;24.60;94.90;;;;;;4994388;28;20278;-72
2023/05/31 16:48:52;;;;;;;2.42;1.17;;;24.60;94.80;;;;;;4994471;28;20230;-72
2023/05/31 16:51:19;;;;;;;1.50;1.05;;;24.50;95.10;;;;;;4994485;28;20218;-71
2023/05/31 16:53:46;;;;;;;1.67;0.90;;;24.50;95.40;;;;;;4994251;28;20213;-71
2023/05/31 16:56:13;;;;;;;2.40;1.00;;;24.60;94.80;;;;;;4994508;28;20560;-71
2023/05/31 16:58:40;;;;;;;2.88;1.25;;;24.60;95.00;;;;;;4994123;28;20229;-71
2023/05/31 17:01:08;;;;;;;2.15;1.10;;;24.40;94.50;;;;;;4994324;28;20206;-71
2023/05/31 17:03:35;;;;;;;3.33;1.13;;;24.50;94.50;;;;;;4994266;28;20309;-70
2023/05/31 17:06:02;;;;;;;2.10;1.30;;;24.60;95.20;;;;;;4993922;28;20301;-72
2023/05/31 17:08:29;;;;;;;2.58;1.20;;;24.50;95.30;;;;;;4994016;28;20226;-71
2023/05/31 17:10:56;;;;;;;2.25;1.40;;;24.50;95.60;;;;;;4994551;28;20228;-72
2023/05/31 17:13:22;;;;;;;3.75;1.38;;;24.50;95.30;;;;;;4994515;28;20228;-71
2023/05/31 17:15:49;;;;;;;1.45;1.20;;;24.50;95.60;;;;;;4994350;28;20234;-72
2023/05/31 17:18:17;;;;;;;2.33;1.05;;;24.40;96.00;;;;;;4993827;28;20230;-71
2023/05/31 17:20:44;;;;;;;2.10;1.05;;;24.30;96.30;;;;;;4994183;28;20206;-71
2023/05/31 17:23:11;;;;;;;2.80;1.13;;;24.30;96.00;;;;;;4994010;28;20234;-72
2023/05/31 17:25:38;;;;;;;3.42;1.15;;;24.20;95.90;;;;;;4994247;28;20210;-71
2023/05/31 17:28:06;;;;;;;3.38;1.50;;;24.30;96.00;;;;;;4994007;28;20269;-71
2023/05/31 17:30:33;;;;;;;1.88;1.30;;;24.30;96.40;;;;;;4994000;28;20214;-72
2023/05/31 17:32:59;;;;;;;3.63;1.20;;;24.20;95.40;;;;;;4993756;28;20557;-71
2023/05/31 17:35:27;;;;;;;3.70;1.15;;;24.20;95.50;;;;;;4993624;28;20240;-71
2023/05/31 17:37:54;;;;;;;1.90;1.20;;;24.20;96.00;;;;;;4993874;28;20236;-71
2023/05/31 17:40:21;;;;;;;2.15;1.30;;;24.10;95.90;;;;;;4994124;28;20206;-72
2023/05/31 17:42:49;;;;;;;3.63;1.20;;;23.90;96.00;;;;;;4993572;28;20216;-71
2023/05/31 17:45:16;;;;;;;2.97;1.27;;;24.00;96.70;;;;;;4993795;28;20229;-71
2023/05/31 17:47:44;;;;;;;6.63;1.50;;;24.00;96.30;;;;;;4993551;28;20226;-72
2023/05/31 17:50:11;;;;;;;2.70;1.40;;;24.00;96.00;;;;;;4993587;28;20220;-71
2023/05/31 17:52:39;;;;;;;2.65;1.30;;;24.00;95.60;;;;;;4993258;28;20661;-71
2023/05/31 17:55:07;;;;;;;4.72;1.27;;;23.90;95.60;;;;;;4993692;28;20235;-70
2023/05/31 17:57:35;;;;;;;1.55;1.20;;;23.80;95.90;;;;;;4993287;28;20788;-71
2023/05/31 18:00:02;;;;;;;3.08;1.30;;;23.80;96.30;;;;;;4993503;28;20216;-71
2023/05/31 18:02:29;;;;;;;2.83;1.35;;;23.80;96.10;;;;;;4993094;28;20258;-72
2023/05/31 18:04:56;;;;;;;4.18;1.65;;;23.80;96.00;;;;;;4993747;28;20297;-71
2023/05/31 18:07:23;;;;;;;3.63;1.35;;;23.80;96.00;;;;;;4993104;28;20223;-71
2023/05/31 18:09:51;;;;;;;3.70;1.45;;;23.70;96.00;;;;;;4995087;28;20301;-71
2023/05/31 18:12:18;;;;;;;1.92;1.13;;;23.70;96.40;;;;;;4997517;28;20298;-71
2023/05/31 18:14:45;;;;;;;6.45;1.50;;;23.70;96.50;;;;;;4997229;28;20581;-70
2023/05/31 18:17:12;;;;;;;2.83;1.40;;;23.70;96.90;;;;;;4997068;28;20313;-74
2023/05/31 18:19:39;;;;;;;4.00;1.13;;;23.60;96.60;;;;;;4997514;28;20297;-72
2023/05/31 18:22:06;;;;;;;3.50;1.55;;;23.60;96.60;;;;;;4997273;28;20297;-71
2023/05/31 18:24:34;;;;;;;2.90;1.30;;;23.40;96.80;;;;;;4997474;28;20208;-71
2023/05/31 18:27:15;;;;;;;3.40;1.33;;;23.20;96.80;;;;;;4997382;28;20266;-72
2023/05/31 18:29:43;;;;;;;3.17;1.30;;;23.20;97.00;;;;;;4997105;28;20653;-72
2023/05/31 18:32:10;;;;;;;2.90;1.20;;;23.20;97.20;;;;;;4997183;28;20210;-72
2023/05/31 18:34:37;;;;;;;5.13;1.50;;;23.10;97.20;;;;;;4997079;28;20268;-73
2023/05/31 18:37:05;;;;;;;3.15;1.55;;;23.00;97.40;;;;;;4997021;28;20230;-72
2023/05/31 18:39:31;;;;;;;4.28;1.45;;;23.00;97.80;;;;;;4997084;28;20206;-72
2023/05/31 18:41:58;;;;;;;4.55;1.70;;;23.00;97.00;;;;;;4996864;28;20202;-71
2023/05/31 18:44:26;;;;;;;3.70;1.40;;;22.90;97.30;;;;;;4996788;28;20210;-71
2023/05/31 18:46:53;;;;;;;4.63;1.30;;;22.90;97.10;;;;;;4996731;28;20230;-71
2023/05/31 18:49:21;;;;;;;5.78;1.50;;;22.90;97.00;;;;;;4997039;28;20206;-71
2023/05/31 18:51:48;;;;;;;1.63;1.10;;;22.90;97.00;;;;;;4996579;28;20210;-72
2023/05/31 18:54:16;;;;;;;1.17;0.88;;;22.80;97.10;;;;;;4996897;28;20216;-71
2023/05/31 18:56:44;;;;;;;4.47;1.67;;;22.90;97.00;;;;;;4996760;28;20600;-72
2023/05/31 18:59:10;;;;;;;2.67;1.10;;;22.80;97.20;;;;;;4996857;28;20214;-72
2023/05/31 19:01:40;;;;;;;2.00;1.25;;;22.80;97.40;;;;;;4996373;28;20212;-71
2023/05/31 19:04:07;;;;;;;4.45;1.30;;;22.70;97.30;;;;;;4996705;28;20221;-72
2023/05/31 19:06:33;;;;;;;2.85;1.40;;;22.70;97.40;;;;;;4996237;28;20564;-72
2023/05/31 19:09:01;;;;;;;5.25;2.30;;;22.60;97.40;;;;;;4996722;28;20257;-72
2023/05/31 19:11:28;;;;;;;2.70;1.23;;;22.50;97.60;;;;;;4996461;28;20542;-71
2023/05/31 19:13:55;;;;;;;2.72;1.17;;;22.50;97.70;;;;;;4996711;28;20206;-72
2023/05/31 19:16:22;;;;;;;2.78;1.10;;;22.50;97.70;;;;;;4996374;28;20234;-72
2023/05/31 19:18:51;;;;;;;2.05;1.10;;;22.40;97.70;;;;;;4996263;28;20223;-72
2023/05/31 19:21:18;;;;;;;2.20;1.20;;;22.50;98.00;;;;;;4995032;28;20293;-72
2023/05/31 19:23:45;;;;;;;4.82;1.35;;;22.50;97.80;;;;;;4995982;28;20768;-72
2023/05/31 19:26:14;;;;;;;3.35;1.23;;;22.50;97.90;;;;;;4996329;28;20216;-72
2023/05/31 19:28:41;;;;;;;2.03;1.02;;;22.50;98.00;;;;;;4996313;28;20233;-71
2023/05/31 19:31:08;;;;;;;1.90;0.98;;;22.50;98.00;;;;;;4996172;28;20210;-72
2023/05/31 19:33:35;;;;;;;2.50;1.10;;;22.50;98.10;;;;;;4996244;28;20207;-71
2023/05/31 19:36:03;;;;;;;3.28;1.20;;;22.30;98.40;;;;;;4996905;28;20234;-72
2023/05/31 19:38:31;;;;;;;2.53;1.15;;;22.30;98.40;;;;;;4996266;28;20317;-71
2023/05/31 19:40:58;;;;;;;2.80;1.20;;;22.10;98.80;;;;;;4996032;28;20305;-71
2023/05/31 19:43:25;;;;;;;4.53;1.23;;;22.20;98.90;;;;;;4996014;28;20202;-70
2023/05/31 19:45:52;;;;;;;2.63;1.30;;;22.20;98.80;;;;;;4995901;28;20206;-70
2023/05/31 19:48:18;;;;;;;4.55;1.33;;;21.90;99.50;;;;;;4995480;28;20654;-71
2023/05/31 19:50:45;;;;;;;1.23;0.93;;;22.00;99.30;;;;;;4994972;28;20677;-72
2023/05/31 19:53:14;;;;;;;4.43;1.15;;;21.90;99.40;;;;;;4996022;28;20570;-71
2023/05/31 19:55:42;;;;;;;2.65;1.42;;;21.70;99.70;;;;;;4995611;28;20700;-71
2023/05/31 19:58:09;;;;;;;2.38;1.10;;;21.70;99.80;;;;;;4995805;28;20310;-70
2023/05/31 20:00:36;;;;;;;2.13;0.98;;;21.80;99.90;;;;;;4995397;28;20572;-71
2023/05/31 20:03:03;;;;;;;4.38;1.50;;;21.90;99.80;;;;;;4995592;28;20253;-71
2023/05/31 20:05:30;;;;;;;2.90;1.02;;;21.70;99.90;;;;;;4995217;28;20210;-70
2023/05/31 20:07:57;;;;;;;2.60;1.40;;;21.60;99.90;;;;;;4995476;28;20226;-72
2023/05/31 20:10:25;;;;;;;3.55;1.42;;;21.50;99.90;;;;;;4995569;28;20206;-71
2023/05/31 20:12:52;;;;;;;4.45;1.50;;;21.20;99.90;;;;;;4995544;28;20573;-70
2023/05/31 20:15:19;;;;;;;6.25;1.90;;;21.00;99.90;;;;;;4995241;28;20226;-70
2023/05/31 20:17:46;;;;;;;1.42;1.10;;;21.20;99.90;;;;;;4995033;28;20241;-71
2023/05/31 20:20:13;;;;;;;2.83;1.50;;;21.20;99.90;;;;;;4995268;28;20211;-70
2023/05/31 20:22:40;;;;;;;5.70;1.73;;;21.40;99.90;;;;;;4994920;28;20257;-71
2023/05/31 20:25:08;;;;;;;4.18;1.42;;;21.30;99.90;;;;;;4994927;28;20237;-71
2023/05/31 20:27:36;;;;;;;3.72;1.60;;;21.10;99.90;;;;;;4994789;28;20233;-72
2023/05/31 20:30:04;;;;;;;3.22;1.70;;;21.10;99.90;;;;;;4994922;28;20213;-70
2023/05/31 20:32:30;;;;;;;4.28;1.65;;;21.10;99.90;;;;;;4994587;28;20661;-71
2023/05/31 20:34:58;;;;;;;2.47;1.63;;;21.00;99.90;;;;;;4994897;28;20202;-70
2023/05/31 20:37:25;;;;;;;6.00;2.42;;;20.90;99.90;;;;;;4994585;28;20258;-70
2023/05/31 20:39:52;;;;;;;3.42;2.15;;;20.80;99.90;;;;;;4994884;28;20213;-71
2023/05/31 20:42:19;;;;;;;4.75;2.03;;;20.70;99.90;;;;;;4994485;28;20206;-71